Terminal Aerodrome Forecast
Issued by NWS

Home | Current Version | Previous Version | Text Only | Print | Product List | Glossary On
Versions: 1 2 3 4 5 6 7 8 9 10 11 12 13 14 15 16
000
FTUS44 KMAF 301100
TAFHOB
TAF
KHOB 301124Z 3012/3112 12010KT P6SM BKN120 OVC250
     FM301600 23012G23KT P6SM SCT060 SCT250
     FM302100 35010KT P6SM BKN060 OVC250 PROB30 3022/3103 TSRA
      BKN050CB
     FM310300 03012KT P6SM BKN060 OVC250=

USA.gov is the U.S. government's official web portal to all federal, state and local government web resources and services.